sensor_id;sensor_type;location;lat;lon;timestamp;temperature;humidity
13433;DHT22;6789;47.678;9.158;2024-01-27T00:00:45;7.80;99.90
13433;DHT22;6789;47.678;9.158;2024-01-27T00:05:37;7.80;99.90
13433;DHT22;6789;47.678;9.158;2024-01-27T00:10:29;7.70;99.90
13433;DHT22;6789;47.678;9.158;2024-01-27T00:15:21;7.60;99.90
13433;DHT22;6789;47.678;9.158;2024-01-27T00:20:13;7.70;99.90
13433;DHT22;6789;47.678;9.158;2024-01-27T00:25:05;7.60;99.90
13433;DHT22;6789;47.678;9.158;2024-01-27T00:29:57;7.40;99.90
13433;DHT22;6789;47.678;9.158;2024-01-27T00:34:49;7.40;99.90
13433;DHT22;6789;47.678;9.158;2024-01-27T00:39:41;7.30;99.90
13433;DHT22;6789;47.678;9.158;2024-01-27T00:44:33;7.40;99.90
13433;DHT22;6789;47.678;9.158;2024-01-27T00:49:25;7.40;99.90
13433;DHT22;6789;47.678;9.158;2024-01-27T00:54:17;7.30;99.90
13433;DHT22;6789;47.678;9.158;2024-01-27T00:59:09;7.30;99.90
13433;DHT22;6789;47.678;9.158;2024-01-27T01:04:01;7.20;99.90
13433;DHT22;6789;47.678;9.158;2024-01-27T01:08:52;7.20;99.90
13433;DHT22;6789;47.678;9.158;2024-01-27T01:13:45;7.20;99.90
13433;DHT22;6789;47.678;9.158;2024-01-27T01:29:42;7.20;99.90
13433;DHT22;6789;47.678;9.158;2024-01-27T01:34:50;7.00;99.90
13433;DHT22;6789;47.678;9.158;2024-01-27T01:39:42;7.00;99.90
13433;DHT22;6789;47.678;9.158;2024-01-27T01:44:34;7.00;99.90
13433;DHT22;6789;47.678;9.158;2024-01-27T01:49:26;7.00;99.90
13433;DHT22;6789;47.678;9.158;2024-01-27T01:54:19;7.00;99.90
13433;DHT22;6789;47.678;9.158;2024-01-27T01:59:14;6.90;99.90
13433;DHT22;6789;47.678;9.158;2024-01-27T02:04:05;6.80;99.90
13433;DHT22;6789;47.678;9.158;2024-01-27T02:08:57;6.80;99.90
13433;DHT22;6789;47.678;9.158;2024-01-27T02:13:49;6.70;99.90
13433;DHT22;6789;47.678;9.158;2024-01-27T02:18:41;6.60;99.90
13433;DHT22;6789;47.678;9.158;2024-01-27T02:23:33;6.50;99.90
13433;DHT22;6789;47.678;9.158;2024-01-27T02:28:25;6.40;99.90
13433;DHT22;6789;47.678;9.158;2024-01-27T02:33:16;6.30;99.90
13433;DHT22;6789;47.678;9.158;2024-01-27T02:38:09;6.20;99.90
13433;DHT22;6789;47.678;9.158;2024-01-27T02:43:00;6.10;99.90
13433;DHT22;6789;47.678;9.158;2024-01-27T02:47:52;5.90;99.90
13433;DHT22;6789;47.678;9.158;2024-01-27T02:52:44;5.70;99.90
13433;DHT22;6789;47.678;9.158;2024-01-27T02:57:36;5.60;99.90
13433;DHT22;6789;47.678;9.158;2024-01-27T03:02:28;5.60;99.90
13433;DHT22;6789;47.678;9.158;2024-01-27T03:07:19;5.30;99.90
13433;DHT22;6789;47.678;9.158;2024-01-27T03:12:11;5.30;99.90
13433;DHT22;6789;47.678;9.158;2024-01-27T03:17:04;5.20;99.90
13433;DHT22;6789;47.678;9.158;2024-01-27T03:21:55;5.10;99.90
13433;DHT22;6789;47.678;9.158;2024-01-27T03:26:47;5.10;99.90
13433;DHT22;6789;47.678;9.158;2024-01-27T03:31:39;4.90;99.90
13433;DHT22;6789;47.678;9.158;2024-01-27T03:36:31;4.90;99.90
13433;DHT22;6789;47.678;9.158;2024-01-27T03:41:23;4.80;99.90
13433;DHT22;6789;47.678;9.158;2024-01-27T03:46:14;4.60;99.90
13433;DHT22;6789;47.678;9.158;2024-01-27T03:51:06;4.40;99.90
13433;DHT22;6789;47.678;9.158;2024-01-27T03:55:58;4.30;99.90
13433;DHT22;6789;47.678;9.158;2024-01-27T04:00:53;4.30;99.90
13433;DHT22;6789;47.678;9.158;2024-01-27T04:05:45;4.40;99.90
13433;DHT22;6789;47.678;9.158;2024-01-27T04:10:37;4.50;99.90
13433;DHT22;6789;47.678;9.158;2024-01-27T04:15:29;4.40;99.90
13433;DHT22;6789;47.678;9.158;2024-01-27T04:20:21;4.30;99.90
13433;DHT22;6789;47.678;9.158;2024-01-27T04:25:13;4.30;99.90
13433;DHT22;6789;47.678;9.158;2024-01-27T04:30:06;4.20;99.90
13433;DHT22;6789;47.678;9.158;2024-01-27T04:34:59;4.20;99.90
13433;DHT22;6789;47.678;9.158;2024-01-27T04:39:50;4.00;99.90
13433;DHT22;6789;47.678;9.158;2024-01-27T04:44:42;4.00;99.90
13433;DHT22;6789;47.678;9.158;2024-01-27T04:49:34;4.00;99.90
13433;DHT22;6789;47.678;9.158;2024-01-27T04:54:26;4.00;99.90
13433;DHT22;6789;47.678;9.158;2024-01-27T05:04:25;3.60;99.90
13433;DHT22;6789;47.678;9.158;2024-01-27T05:09:18;3.60;99.90
13433;DHT22;6789;47.678;9.158;2024-01-27T05:14:10;3.50;99.90
13433;DHT22;6789;47.678;9.158;2024-01-27T05:19:02;3.30;99.90
13433;DHT22;6789;47.678;9.158;2024-01-27T05:23:54;3.10;99.90
13433;DHT22;6789;47.678;9.158;2024-01-27T05:28:46;3.10;99.90
13433;DHT22;6789;47.678;9.158;2024-01-27T05:33:38;3.20;99.90
13433;DHT22;6789;47.678;9.158;2024-01-27T05:38:31;3.20;99.90
13433;DHT22;6789;47.678;9.158;2024-01-27T05:43:23;3.10;99.90
13433;DHT22;6789;47.678;9.158;2024-01-27T05:48:15;2.90;99.90
13433;DHT22;6789;47.678;9.158;2024-01-27T05:53:09;2.90;99.90
13433;DHT22;6789;47.678;9.158;2024-01-27T05:58:00;2.80;99.90
13433;DHT22;6789;47.678;9.158;2024-01-27T06:02:52;2.70;99.90
13433;DHT22;6789;47.678;9.158;2024-01-27T06:07:44;2.60;99.90
13433;DHT22;6789;47.678;9.158;2024-01-27T06:12:39;2.60;99.90
13433;DHT22;6789;47.678;9.158;2024-01-27T06:17:31;2.60;99.90
13433;DHT22;6789;47.678;9.158;2024-01-27T06:22:23;2.60;99.90
13433;DHT22;6789;47.678;9.158;2024-01-27T06:27:15;2.60;99.90
13433;DHT22;6789;47.678;9.158;2024-01-27T06:32:06;2.70;99.90
13433;DHT22;6789;47.678;9.158;2024-01-27T06:37:02;2.70;99.90
13433;DHT22;6789;47.678;9.158;2024-01-27T06:41:54;2.60;99.90
13433;DHT22;6789;47.678;9.158;2024-01-27T06:46:46;2.70;99.90
13433;DHT22;6789;47.678;9.158;2024-01-27T06:51:41;2.50;99.90
13433;DHT22;6789;47.678;9.158;2024-01-27T06:56:33;2.50;99.90
13433;DHT22;6789;47.678;9.158;2024-01-27T07:01:24;2.40;99.90
13433;DHT22;6789;47.678;9.158;2024-01-27T07:06:16;2.40;99.90
13433;DHT22;6789;47.678;9.158;2024-01-27T07:11:08;2.40;99.90
13433;DHT22;6789;47.678;9.158;2024-01-27T07:16:00;2.40;99.90
13433;DHT22;6789;47.678;9.158;2024-01-27T07:20:52;2.40;99.90
13433;DHT22;6789;47.678;9.158;2024-01-27T07:25:44;2.50;99.90
13433;DHT22;6789;47.678;9.158;2024-01-27T07:30:36;2.60;99.90
13433;DHT22;6789;47.678;9.158;2024-01-27T07:35:28;2.60;99.90
13433;DHT22;6789;47.678;9.158;2024-01-27T07:40:20;2.50;99.90
13433;DHT22;6789;47.678;9.158;2024-01-27T07:45:11;2.50;99.90
13433;DHT22;6789;47.678;9.158;2024-01-27T07:50:04;2.60;99.90
13433;DHT22;6789;47.678;9.158;2024-01-27T07:54:56;2.60;99.90
13433;DHT22;6789;47.678;9.158;2024-01-27T07:59:48;2.70;99.90
13433;DHT22;6789;47.678;9.158;2024-01-27T08:04:39;2.80;99.90
13433;DHT22;6789;47.678;9.158;2024-01-27T08:09:33;3.00;99.90
13433;DHT22;6789;47.678;9.158;2024-01-27T08:14:25;3.20;99.90
13433;DHT22;6789;47.678;9.158;2024-01-27T08:19:17;3.40;99.90
13433;DHT22;6789;47.678;9.158;2024-01-27T08:24:13;3.40;99.90
13433;DHT22;6789;47.678;9.158;2024-01-27T08:29:05;3.40;99.90
13433;DHT22;6789;47.678;9.158;2024-01-27T08:33:57;3.50;99.90
13433;DHT22;6789;47.678;9.158;2024-01-27T08:38:49;3.70;99.90
13433;DHT22;6789;47.678;9.158;2024-01-27T08:43:41;3.80;99.90
13433;DHT22;6789;47.678;9.158;2024-01-27T08:48:33;3.70;99.90
13433;DHT22;6789;47.678;9.158;2024-01-27T08:53:25;3.90;99.90
13433;DHT22;6789;47.678;9.158;2024-01-27T08:58:17;3.90;99.90
13433;DHT22;6789;47.678;9.158;2024-01-27T09:03:09;4.10;99.90
13433;DHT22;6789;47.678;9.158;2024-01-27T09:08:00;4.20;99.90
13433;DHT22;6789;47.678;9.158;2024-01-27T09:12:52;4.20;99.90
13433;DHT22;6789;47.678;9.158;2024-01-27T09:17:44;4.20;99.90
13433;DHT22;6789;47.678;9.158;2024-01-27T09:22:36;4.20;99.90
13433;DHT22;6789;47.678;9.158;2024-01-27T09:27:27;4.10;99.90
13433;DHT22;6789;47.678;9.158;2024-01-27T09:32:19;4.30;99.90
13433;DHT22;6789;47.678;9.158;2024-01-27T09:37:11;4.40;99.90
13433;DHT22;6789;47.678;9.158;2024-01-27T09:42:06;4.50;99.90
13433;DHT22;6789;47.678;9.158;2024-01-27T09:46:59;4.70;99.90
13433;DHT22;6789;47.678;9.158;2024-01-27T09:51:51;5.00;99.90
13433;DHT22;6789;47.678;9.158;2024-01-27T09:56:43;5.10;99.90
13433;DHT22;6789;47.678;9.158;2024-01-27T10:01:38;5.30;99.90
13433;DHT22;6789;47.678;9.158;2024-01-27T10:06:30;5.30;99.90
13433;DHT22;6789;47.678;9.158;2024-01-27T10:11:23;5.50;99.90
13433;DHT22;6789;47.678;9.158;2024-01-27T10:16:15;5.50;99.90
13433;DHT22;6789;47.678;9.158;2024-01-27T10:21:14;5.40;99.90
13433;DHT22;6789;47.678;9.158;2024-01-27T10:26:11;5.50;99.90
13433;DHT22;6789;47.678;9.158;2024-01-27T10:31:12;5.50;99.90
13433;DHT22;6789;47.678;9.158;2024-01-27T10:36:05;5.70;99.90
13433;DHT22;6789;47.678;9.158;2024-01-27T10:40:57;5.70;99.90
13433;DHT22;6789;47.678;9.158;2024-01-27T10:45:49;5.80;99.90
13433;DHT22;6789;47.678;9.158;2024-01-27T10:50:42;6.00;99.90
13433;DHT22;6789;47.678;9.158;2024-01-27T10:55:37;6.30;99.90
13433;DHT22;6789;47.678;9.158;2024-01-27T11:00:31;6.50;99.90
13433;DHT22;6789;47.678;9.158;2024-01-27T11:05:24;6.60;99.90
13433;DHT22;6789;47.678;9.158;2024-01-27T11:10:19;6.80;99.90
13433;DHT22;6789;47.678;9.158;2024-01-27T11:15:11;6.80;99.90
13433;DHT22;6789;47.678;9.158;2024-01-27T11:20:03;7.00;99.90
13433;DHT22;6789;47.678;9.158;2024-01-27T11:25:12;7.20;99.90
13433;DHT22;6789;47.678;9.158;2024-01-27T11:30:30;7.40;99.90
13433;DHT22;6789;47.678;9.158;2024-01-27T11:35:25;7.40;99.90
13433;DHT22;6789;47.678;9.158;2024-01-27T11:40:18;7.60;99.90
13433;DHT22;6789;47.678;9.158;2024-01-27T11:45:10;7.80;99.90
13433;DHT22;6789;47.678;9.158;2024-01-27T11:50:02;8.00;99.90
13433;DHT22;6789;47.678;9.158;2024-01-27T11:55:01;8.00;99.90
13433;DHT22;6789;47.678;9.158;2024-01-27T11:59:53;8.10;99.90
13433;DHT22;6789;47.678;9.158;2024-01-27T12:04:47;8.10;99.90
13433;DHT22;6789;47.678;9.158;2024-01-27T12:09:39;8.10;99.90
13433;DHT22;6789;47.678;9.158;2024-01-27T12:14:41;8.10;99.90
13433;DHT22;6789;47.678;9.158;2024-01-27T12:19:37;8.20;99.90
13433;DHT22;6789;47.678;9.158;2024-01-27T12:24:29;8.50;99.90
13433;DHT22;6789;47.678;9.158;2024-01-27T12:29:21;8.60;99.90
13433;DHT22;6789;47.678;9.158;2024-01-27T12:34:13;8.70;99.90
13433;DHT22;6789;47.678;9.158;2024-01-27T12:39:05;8.70;99.90
13433;DHT22;6789;47.678;9.158;2024-01-27T12:43:58;8.80;99.90
13433;DHT22;6789;47.678;9.158;2024-01-27T12:48:50;9.00;99.90
13433;DHT22;6789;47.678;9.158;2024-01-27T12:53:42;8.90;99.90
13433;DHT22;6789;47.678;9.158;2024-01-27T12:58:35;9.00;99.90
13433;DHT22;6789;47.678;9.158;2024-01-27T13:03:27;9.20;99.90
13433;DHT22;6789;47.678;9.158;2024-01-27T13:08:19;8.90;99.90
13433;DHT22;6789;47.678;9.158;2024-01-27T13:13:14;8.90;99.90
13433;DHT22;6789;47.678;9.158;2024-01-27T13:18:05;9.20;99.90
13433;DHT22;6789;47.678;9.158;2024-01-27T13:22:59;9.10;99.90
13433;DHT22;6789;47.678;9.158;2024-01-27T13:27:50;9.10;99.90
13433;DHT22;6789;47.678;9.158;2024-01-27T13:32:43;9.20;99.90
13433;DHT22;6789;47.678;9.158;2024-01-27T13:37:35;9.00;99.90
13433;DHT22;6789;47.678;9.158;2024-01-27T13:42:27;9.00;99.90
13433;DHT22;6789;47.678;9.158;2024-01-27T13:47:19;9.10;99.90
13433;DHT22;6789;47.678;9.158;2024-01-27T13:52:11;9.20;99.90
13433;DHT22;6789;47.678;9.158;2024-01-27T13:57:03;9.10;99.90
13433;DHT22;6789;47.678;9.158;2024-01-27T14:01:55;9.10;99.90
13433;DHT22;6789;47.678;9.158;2024-01-27T14:06:51;9.20;99.90
13433;DHT22;6789;47.678;9.158;2024-01-27T14:11:47;9.20;99.90
13433;DHT22;6789;47.678;9.158;2024-01-27T14:16:39;9.20;99.90
13433;DHT22;6789;47.678;9.158;2024-01-27T14:21:32;9.10;99.90
13433;DHT22;6789;47.678;9.158;2024-01-27T14:26:24;9.10;99.90
13433;DHT22;6789;47.678;9.158;2024-01-27T14:31:16;9.10;99.90
13433;DHT22;6789;47.678;9.158;2024-01-27T14:36:08;9.20;99.90
13433;DHT22;6789;47.678;9.158;2024-01-27T14:41:00;9.30;99.90
13433;DHT22;6789;47.678;9.158;2024-01-27T14:45:51;9.30;99.90
13433;DHT22;6789;47.678;9.158;2024-01-27T14:50:43;9.10;99.90
13433;DHT22;6789;47.678;9.158;2024-01-27T14:55:35;9.10;99.90
13433;DHT22;6789;47.678;9.158;2024-01-27T15:00:27;9.10;99.90
13433;DHT22;6789;47.678;9.158;2024-01-27T15:05:18;9.10;99.90
13433;DHT22;6789;47.678;9.158;2024-01-27T15:10:10;9.10;99.90
13433;DHT22;6789;47.678;9.158;2024-01-27T15:15:03;9.10;99.90
13433;DHT22;6789;47.678;9.158;2024-01-27T15:19:56;9.00;99.90
13433;DHT22;6789;47.678;9.158;2024-01-27T15:24:47;8.90;99.90
13433;DHT22;6789;47.678;9.158;2024-01-27T15:29:40;9.00;99.90
13433;DHT22;6789;47.678;9.158;2024-01-27T15:34:32;8.90;99.90
13433;DHT22;6789;47.678;9.158;2024-01-27T15:39:23;8.80;99.90
13433;DHT22;6789;47.678;9.158;2024-01-27T15:44:15;8.80;99.90
13433;DHT22;6789;47.678;9.158;2024-01-27T15:49:07;8.80;99.90
13433;DHT22;6789;47.678;9.158;2024-01-27T15:53:59;8.70;99.90
13433;DHT22;6789;47.678;9.158;2024-01-27T15:58:51;8.50;99.90
13433;DHT22;6789;47.678;9.158;2024-01-27T16:03:43;8.40;99.90
13433;DHT22;6789;47.678;9.158;2024-01-27T16:08:34;8.20;99.90
13433;DHT22;6789;47.678;9.158;2024-01-27T16:13:26;8.20;99.90
13433;DHT22;6789;47.678;9.158;2024-01-27T16:18:18;7.90;99.90
13433;DHT22;6789;47.678;9.158;2024-01-27T16:23:10;7.70;99.90
13433;DHT22;6789;47.678;9.158;2024-01-27T16:28:02;7.50;99.90
13433;DHT22;6789;47.678;9.158;2024-01-27T16:32:53;7.30;99.90
13433;DHT22;6789;47.678;9.158;2024-01-27T16:37:45;7.10;99.90
13433;DHT22;6789;47.678;9.158;2024-01-27T16:42:37;6.90;99.90
13433;DHT22;6789;47.678;9.158;2024-01-27T16:47:29;6.80;99.90
13433;DHT22;6789;47.678;9.158;2024-01-27T16:52:21;6.70;99.90
13433;DHT22;6789;47.678;9.158;2024-01-27T16:57:13;6.60;99.90
13433;DHT22;6789;47.678;9.158;2024-01-27T17:02:05;6.50;99.90
13433;DHT22;6789;47.678;9.158;2024-01-27T17:06:57;6.40;99.90
13433;DHT22;6789;47.678;9.158;2024-01-27T17:11:49;6.30;99.90
13433;DHT22;6789;47.678;9.158;2024-01-27T17:16:41;6.20;99.90
13433;DHT22;6789;47.678;9.158;2024-01-27T17:27:00;6.00;99.90
13433;DHT22;6789;47.678;9.158;2024-01-27T17:37:18;5.50;99.90
13433;DHT22;6789;47.678;9.158;2024-01-27T17:42:10;5.30;99.90
13433;DHT22;6789;47.678;9.158;2024-01-27T17:47:03;5.20;99.90
13433;DHT22;6789;47.678;9.158;2024-01-27T17:51:55;5.10;99.90
13433;DHT22;6789;47.678;9.158;2024-01-27T17:56:47;5.00;99.90
13433;DHT22;6789;47.678;9.158;2024-01-27T18:01:40;5.00;99.90
13433;DHT22;6789;47.678;9.158;2024-01-27T18:06:32;5.10;99.90
13433;DHT22;6789;47.678;9.158;2024-01-27T18:11:24;5.30;99.90
13433;DHT22;6789;47.678;9.158;2024-01-27T18:16:16;5.40;99.90
13433;DHT22;6789;47.678;9.158;2024-01-27T18:21:08;5.50;99.90
13433;DHT22;6789;47.678;9.158;2024-01-27T18:25:59;5.60;99.90
13433;DHT22;6789;47.678;9.158;2024-01-27T18:30:51;5.60;99.90
13433;DHT22;6789;47.678;9.158;2024-01-27T18:35:43;5.60;99.90
13433;DHT22;6789;47.678;9.158;2024-01-27T18:40:35;5.30;99.90
13433;DHT22;6789;47.678;9.158;2024-01-27T18:45:46;5.00;99.90
13433;DHT22;6789;47.678;9.158;2024-01-27T18:50:52;4.70;99.90
13433;DHT22;6789;47.678;9.158;2024-01-27T18:55:44;4.50;99.90
13433;DHT22;6789;47.678;9.158;2024-01-27T19:00:37;4.40;99.90
13433;DHT22;6789;47.678;9.158;2024-01-27T19:05:29;4.50;99.90
13433;DHT22;6789;47.678;9.158;2024-01-27T19:10:22;4.40;99.90
13433;DHT22;6789;47.678;9.158;2024-01-27T19:15:14;4.30;99.90
13433;DHT22;6789;47.678;9.158;2024-01-27T19:20:06;4.20;99.90
13433;DHT22;6789;47.678;9.158;2024-01-27T19:24:59;4.10;99.90
13433;DHT22;6789;47.678;9.158;2024-01-27T19:29:51;4.00;99.90
13433;DHT22;6789;47.678;9.158;2024-01-27T19:34:43;4.00;99.90
13433;DHT22;6789;47.678;9.158;2024-01-27T19:39:35;4.00;99.90
13433;DHT22;6789;47.678;9.158;2024-01-27T19:44:27;3.90;99.90
13433;DHT22;6789;47.678;9.158;2024-01-27T19:49:21;3.90;99.90
13433;DHT22;6789;47.678;9.158;2024-01-27T19:54:13;3.90;99.90
13433;DHT22;6789;47.678;9.158;2024-01-27T19:59:05;3.80;99.90
13433;DHT22;6789;47.678;9.158;2024-01-27T20:03:56;3.90;99.90
13433;DHT22;6789;47.678;9.158;2024-01-27T20:08:48;3.80;99.90
13433;DHT22;6789;47.678;9.158;2024-01-27T20:13:40;3.80;99.90
13433;DHT22;6789;47.678;9.158;2024-01-27T20:18:32;3.80;99.90
13433;DHT22;6789;47.678;9.158;2024-01-27T20:23:24;3.70;99.90
13433;DHT22;6789;47.678;9.158;2024-01-27T20:28:15;3.60;99.90
13433;DHT22;6789;47.678;9.158;2024-01-27T20:33:07;3.40;99.90
13433;DHT22;6789;47.678;9.158;2024-01-27T20:37:59;3.30;99.90
13433;DHT22;6789;47.678;9.158;2024-01-27T20:42:51;3.30;99.90
13433;DHT22;6789;47.678;9.158;2024-01-27T20:47:43;3.30;99.90
13433;DHT22;6789;47.678;9.158;2024-01-27T20:52:36;3.30;99.90
13433;DHT22;6789;47.678;9.158;2024-01-27T20:57:27;3.30;99.90
13433;DHT22;6789;47.678;9.158;2024-01-27T21:02:20;3.30;99.90
13433;DHT22;6789;47.678;9.158;2024-01-27T21:07:12;3.30;99.90
13433;DHT22;6789;47.678;9.158;2024-01-27T21:12:08;3.20;99.90
13433;DHT22;6789;47.678;9.158;2024-01-27T21:16:59;3.20;99.90
13433;DHT22;6789;47.678;9.158;2024-01-27T21:21:51;3.20;99.90
13433;DHT22;6789;47.678;9.158;2024-01-27T21:26:43;3.30;99.90
13433;DHT22;6789;47.678;9.158;2024-01-27T21:31:35;3.30;99.90
13433;DHT22;6789;47.678;9.158;2024-01-27T21:36:27;3.30;99.90
13433;DHT22;6789;47.678;9.158;2024-01-27T21:41:19;3.30;99.90
13433;DHT22;6789;47.678;9.158;2024-01-27T21:46:11;3.30;99.90
13433;DHT22;6789;47.678;9.158;2024-01-27T21:51:04;3.30;99.90
13433;DHT22;6789;47.678;9.158;2024-01-27T21:55:55;3.30;99.90
13433;DHT22;6789;47.678;9.158;2024-01-27T22:00:47;3.30;99.90
13433;DHT22;6789;47.678;9.158;2024-01-27T22:05:40;3.30;99.90
13433;DHT22;6789;47.678;9.158;2024-01-27T22:10:32;3.30;99.90
13433;DHT22;6789;47.678;9.158;2024-01-27T22:15:24;3.20;99.90
13433;DHT22;6789;47.678;9.158;2024-01-27T22:20:16;3.20;99.90
13433;DHT22;6789;47.678;9.158;2024-01-27T22:25:08;3.20;99.90
13433;DHT22;6789;47.678;9.158;2024-01-27T22:30:01;3.20;99.90
13433;DHT22;6789;47.678;9.158;2024-01-27T22:34:52;3.30;99.90
13433;DHT22;6789;47.678;9.158;2024-01-27T22:39:46;3.30;99.90
13433;DHT22;6789;47.678;9.158;2024-01-27T22:44:53;3.20;99.90
13433;DHT22;6789;47.678;9.158;2024-01-27T23:37:54;2.80;99.90
